ETH506 HAAB-SBGR
Flight info
| Callsign | ETH506 |
|---|---|
| Flight time | N/A |
| Altitude | 32000 |
| Route | ETGOM UL432 PATAR UM216 IMVIP/N0496F340 UM216 VNA UL340 ITPIK/N0485F360 UL340 TEKIR/N0477F380 UL340 ESORU UZ10 EDMUS |
| Aircraft | B77W/H-SDE1E2E3FGHIJ2J3J4J5M1RWXY/LB1D1 |
Departure
| Time | 2026-05-01 13:31 |
|---|---|
| Airport | Addis Ababa Bole International Airport (HAAB) |
Arrival
| Time | N/A |
|---|---|
| Airport | São Paulo/Guarulhos–Governor André Franco Montoro International Airport (SBGR) |
| Time | Latitude | Longitude | Altitude | Speed | Heading |
|---|---|---|---|---|---|
| 2026-05-01 12:45 | 8.98206 | 38.79614 | 7622 ft | 0 kts | 342° |
| 2026-05-01 13:19 | 8.98173 | 38.79625 | 7627 ft | 4 kts | 338° |
| 2026-05-01 13:20 | 8.98151 | 38.79636 | 7624 ft | 3 kts | 318° |
| 2026-05-01 13:20 | 8.98143 | 38.79647 | 7630 ft | 2 kts | 273° |
| 2026-05-01 13:20 | 8.98144 | 38.79659 | 7628 ft | 2 kts | 257° |
| 2026-05-01 13:21 | 8.98151 | 38.79681 | 7625 ft | 2 kts | 250° |
| 2026-05-01 13:24 | 8.98148 | 38.79676 | 7625 ft | 3 kts | 243° |
| 2026-05-01 13:24 | 8.98133 | 38.79662 | 7624 ft | 6 kts | 210° |
| 2026-05-01 13:24 | 8.98106 | 38.79681 | 7622 ft | 6 kts | 102° |
| 2026-05-01 13:25 | 8.98080 | 38.79759 | 7622 ft | 6 kts | 138° |
| 2026-05-01 13:25 | 8.98026 | 38.79786 | 7622 ft | 14 kts | 158° |
| 2026-05-01 13:25 | 8.97902 | 38.79839 | 7623 ft | 21 kts | 137° |
| 2026-05-01 13:25 | 8.97907 | 38.79973 | 7623 ft | 20 kts | 75° |
| 2026-05-01 13:26 | 8.97943 | 38.80106 | 7623 ft | 20 kts | 75° |
| 2026-05-01 13:26 | 8.97987 | 38.80237 | 7624 ft | 20 kts | 72° |
| 2026-05-01 13:26 | 8.98019 | 38.80371 | 7623 ft | 20 kts | 69° |
| 2026-05-01 13:26 | 8.98063 | 38.80500 | 7621 ft | 20 kts | 73° |
| 2026-05-01 13:27 | 8.98103 | 38.80632 | 7621 ft | 20 kts | 73° |
| 2026-05-01 13:27 | 8.98143 | 38.80764 | 7619 ft | 20 kts | 73° |
| 2026-05-01 13:27 | 8.98219 | 38.81030 | 7620 ft | 20 kts | 73° |
| 2026-05-01 13:28 | 8.98294 | 38.81296 | 7619 ft | 20 kts | 74° |
| 2026-05-01 13:28 | 8.98318 | 38.81429 | 7619 ft | 19 kts | 101° |
| 2026-05-01 13:29 | 8.98159 | 38.81502 | 7621 ft | 4 kts | 244° |
| 2026-05-01 13:30 | 8.97863 | 38.80545 | 7622 ft | 141 kts | 253° |
| 2026-05-01 13:31 | 8.97380 | 38.78378 | 7742 ft | 226 kts | 258° |
| 2026-05-01 13:31 | 8.94526 | 38.74260 | 9269 ft | 258 kts | 193° |
| 2026-05-01 13:32 | 8.90881 | 38.73219 | 9644 ft | 287 kts | 197° |
| 2026-05-01 13:33 | 8.85121 | 38.70871 | 10619 ft | 318 kts | 203° |
| 2026-05-01 13:33 | 8.80878 | 38.68757 | 10843 ft | 360 kts | 206° |
| 2026-05-01 13:34 | 8.76251 | 38.66286 | 11452 ft | 384 kts | 207° |
| 2026-05-01 13:34 | 8.71524 | 38.63672 | 12833 ft | 388 kts | 208° |
| 2026-05-01 13:35 | 8.66766 | 38.61013 | 14052 ft | 398 kts | 208° |
| 2026-05-01 13:35 | 8.64328 | 38.59650 | 14719 ft | 401 kts | 208° |
| 2026-05-01 13:35 | 8.59439 | 38.56919 | 15973 ft | 408 kts | 208° |
| 2026-05-01 13:36 | 8.56938 | 38.55523 | 16569 ft | 411 kts | 208° |
| 2026-05-01 13:36 | 8.54440 | 38.54128 | 17377 ft | 410 kts | 208° |
| 2026-05-01 13:36 | 8.49328 | 38.51273 | 18457 ft | 419 kts | 208° |
| 2026-05-01 13:37 | 8.46786 | 38.49853 | 18927 ft | 427 kts | 208° |
| 2026-05-01 13:37 | 8.44163 | 38.48389 | 19377 ft | 431 kts | 208° |
| 2026-05-01 13:37 | 8.41531 | 38.46923 | 19965 ft | 432 kts | 208° |
| 2026-05-01 13:37 | 8.38912 | 38.45461 | 20615 ft | 433 kts | 208° |
| 2026-05-01 13:38 | 8.33562 | 38.42473 | 21638 ft | 437 kts | 208° |
| 2026-05-01 13:38 | 8.30881 | 38.40977 | 22106 ft | 444 kts | 208° |
| 2026-05-01 13:38 | 8.28159 | 38.39459 | 22541 ft | 446 kts | 208° |
| 2026-05-01 13:39 | 8.25433 | 38.37940 | 23042 ft | 451 kts | 208° |
| 2026-05-01 13:39 | 8.22665 | 38.36399 | 23403 ft | 456 kts | 208° |
| 2026-05-01 13:39 | 8.19887 | 38.34851 | 23913 ft | 455 kts | 208° |
| 2026-05-01 13:39 | 8.17104 | 38.33301 | 24262 ft | 460 kts | 208° |
| 2026-05-01 13:40 | 8.14322 | 38.31750 | 24592 ft | 464 kts | 208° |
| 2026-05-01 13:40 | 8.11458 | 38.30153 | 24958 ft | 467 kts | 208° |
| 2026-05-01 13:40 | 8.08638 | 38.28582 | 25278 ft | 471 kts | 208° |
| 2026-05-01 13:40 | 8.05747 | 38.26973 | 25521 ft | 476 kts | 208° |
| 2026-05-01 13:41 | 8.02846 | 38.25357 | 25930 ft | 477 kts | 208° |
| 2026-05-01 13:41 | 7.99944 | 38.23742 | 26416 ft | 476 kts | 208° |
| 2026-05-01 13:41 | 7.97026 | 38.22118 | 26819 ft | 478 kts | 209° |
| 2026-05-01 13:41 | 7.94109 | 38.20495 | 27163 ft | 480 kts | 209° |
| 2026-05-01 13:42 | 7.91179 | 38.18864 | 27563 ft | 481 kts | 209° |
| 2026-05-01 13:42 | 7.88234 | 38.17225 | 27874 ft | 485 kts | 209° |
| 2026-05-01 13:42 | 7.85278 | 38.15580 | 28308 ft | 485 kts | 209° |
| 2026-05-01 13:42 | 7.82305 | 38.13927 | 28529 ft | 491 kts | 209° |
| 2026-05-01 13:43 | 7.79309 | 38.12261 | 28807 ft | 494 kts | 209° |
| 2026-05-01 13:43 | 7.76274 | 38.10573 | 29084 ft | 498 kts | 209° |
| 2026-05-01 13:43 | 7.73271 | 38.08904 | 29365 ft | 500 kts | 209° |
| 2026-05-01 13:43 | 7.70216 | 38.07206 | 29647 ft | 502 kts | 209° |
| 2026-05-01 13:44 | 7.67144 | 38.05499 | 29906 ft | 504 kts | 209° |
| 2026-05-01 13:44 | 7.64067 | 38.03790 | 30252 ft | 504 kts | 209° |
| 2026-05-01 13:44 | 7.60987 | 38.02079 | 30628 ft | 502 kts | 210° |
| 2026-05-01 13:44 | 7.57973 | 38.00405 | 30985 ft | 500 kts | 210° |
| 2026-05-01 13:45 | 7.54931 | 37.98716 | 31359 ft | 498 kts | 210° |
| 2026-05-01 13:45 | 7.51898 | 37.97032 | 31745 ft | 496 kts | 210° |
| 2026-05-01 13:45 | 7.48869 | 37.95350 | 32009 ft | 496 kts | 210° |
| 2026-05-01 13:46 | 7.42799 | 37.91980 | 31984 ft | 498 kts | 210° |
| 2026-05-01 13:46 | 7.36761 | 37.88630 | 31986 ft | 497 kts | 210° |
| 2026-05-01 13:47 | 7.30686 | 37.85262 | 31982 ft | 498 kts | 210° |
| 2026-05-01 13:47 | 7.24615 | 37.81894 | 31973 ft | 498 kts | 209° |
| 2026-05-01 13:48 | 7.18531 | 37.78522 | 31973 ft | 498 kts | 210° |
| 2026-05-01 13:48 | 7.12459 | 37.75157 | 31965 ft | 498 kts | 209° |
| 2026-05-01 13:49 | 7.06410 | 37.71805 | 31968 ft | 498 kts | 209° |
| 2026-05-01 13:49 | 7.00333 | 37.68439 | 31968 ft | 499 kts | 209° |
| 2026-05-01 13:50 | 6.94233 | 37.65060 | 31947 ft | 501 kts | 209° |
| 2026-05-01 13:50 | 6.88117 | 37.61676 | 31949 ft | 501 kts | 209° |
| 2026-05-01 13:51 | 6.81982 | 37.58331 | 31948 ft | 501 kts | 208° |
| 2026-05-01 13:51 | 6.75852 | 37.55065 | 31948 ft | 500 kts | 208° |
| 2026-05-01 13:52 | 6.69704 | 37.51795 | 31957 ft | 499 kts | 208° |
| 2026-05-01 13:52 | 6.63564 | 37.48516 | 31956 ft | 498 kts | 208° |
| 2026-05-01 13:53 | 6.57444 | 37.45242 | 31965 ft | 498 kts | 208° |
| 2026-05-01 13:53 | 6.48301 | 37.40351 | 31974 ft | 498 kts | 208° |
| 2026-05-01 13:54 | 6.42161 | 37.37068 | 31971 ft | 499 kts | 208° |
| 2026-05-01 13:54 | 6.36023 | 37.33788 | 31981 ft | 500 kts | 208° |
| 2026-05-01 13:55 | 6.29865 | 37.30498 | 31987 ft | 501 kts | 208° |
| 2026-05-01 13:55 | 6.23734 | 37.27223 | 31984 ft | 502 kts | 208° |
| 2026-05-01 13:56 | 6.17553 | 37.23923 | 31980 ft | 502 kts | 208° |
| 2026-05-01 13:56 | 6.11382 | 37.20628 | 31983 ft | 501 kts | 208° |
| 2026-05-01 13:57 | 6.06266 | 37.17898 | 33365 ft | 500 kts | 208° |
| 2026-05-01 13:57 | 6.02218 | 37.15738 | 33048 ft | 490 kts | 208° |
| 2026-05-01 13:57 | 5.99227 | 37.14142 | 32795 ft | 481 kts | 208° |
| 2026-05-01 13:58 | 5.96270 | 37.12565 | 32540 ft | 479 kts | 208° |
| 2026-05-01 13:58 | 5.93364 | 37.11014 | 32313 ft | 478 kts | 208° |
| 2026-05-01 13:58 | 5.90435 | 37.09452 | 32171 ft | 476 kts | 208° |
| 2026-05-01 13:58 | 5.87509 | 37.07892 | 32097 ft | 476 kts | 208° |
| 2026-05-01 13:59 | 5.81601 | 37.04742 | 32015 ft | 484 kts | 208° |
| 2026-05-01 13:59 | 5.75649 | 37.01569 | 32006 ft | 483 kts | 208° |
| 2026-05-01 14:00 | 5.69699 | 36.98398 | 32004 ft | 482 kts | 208° |
| 2026-05-01 14:00 | 5.63786 | 36.95248 | 32008 ft | 482 kts | 208° |
| 2026-05-01 14:01 | 5.57862 | 36.92092 | 32006 ft | 481 kts | 208° |
| 2026-05-01 14:01 | 5.51975 | 36.88957 | 32006 ft | 481 kts | 208° |
| 2026-05-01 14:02 | 5.46053 | 36.85804 | 32008 ft | 481 kts | 208° |
| 2026-05-01 14:02 | 5.40129 | 36.82651 | 32008 ft | 482 kts | 208° |
| 2026-05-01 14:03 | 5.34198 | 36.79495 | 32007 ft | 482 kts | 208° |
| 2026-05-01 14:03 | 5.28292 | 36.76352 | 32008 ft | 483 kts | 208° |
| 2026-05-01 14:04 | 5.22352 | 36.73192 | 32007 ft | 483 kts | 208° |
| 2026-05-01 14:04 | 5.17416 | 36.70567 | 32009 ft | 483 kts | 208° |
| 2026-05-01 14:05 | 5.10464 | 36.66870 | 32007 ft | 483 kts | 208° |
| 2026-05-01 14:05 | 5.04514 | 36.63707 | 32009 ft | 483 kts | 208° |
| 2026-05-01 14:06 | 4.98599 | 36.60563 | 32004 ft | 483 kts | 208° |
| 2026-05-01 14:06 | 4.92664 | 36.57409 | 32009 ft | 483 kts | 208° |
| 2026-05-01 14:07 | 4.86725 | 36.54254 | 32006 ft | 482 kts | 208° |
| 2026-05-01 14:08 | 4.77859 | 36.49544 | 32007 ft | 482 kts | 208° |
| 2026-05-01 14:08 | 4.71930 | 36.46396 | 32008 ft | 482 kts | 208° |
| 2026-05-01 14:09 | 4.65986 | 36.43240 | 32007 ft | 482 kts | 208° |
| 2026-05-01 14:09 | 4.60087 | 36.40109 | 32008 ft | 482 kts | 208° |
| 2026-05-01 14:10 | 4.54154 | 36.36960 | 32007 ft | 482 kts | 208° |
| 2026-05-01 14:10 | 4.48216 | 36.33809 | 32007 ft | 482 kts | 208° |
| 2026-05-01 14:11 | 4.42283 | 36.30661 | 32008 ft | 482 kts | 208° |
| 2026-05-01 14:11 | 4.33371 | 36.25934 | 32007 ft | 482 kts | 208° |
| 2026-05-01 14:12 | 4.27424 | 36.22781 | 32007 ft | 482 kts | 208° |
| 2026-05-01 14:12 | 4.21524 | 36.19652 | 32007 ft | 482 kts | 208° |
| 2026-05-01 14:13 | 4.16590 | 36.17036 | 32007 ft | 482 kts | 208° |
| 2026-05-01 14:13 | 4.09640 | 36.13352 | 32007 ft | 482 kts | 208° |
| 2026-05-01 14:14 | 4.03708 | 36.10207 | 32007 ft | 482 kts | 208° |
| 2026-05-01 14:14 | 3.97804 | 36.07083 | 32008 ft | 482 kts | 208° |
| 2026-05-01 14:15 | 3.91859 | 36.03953 | 32008 ft | 482 kts | 208° |
| 2026-05-01 14:15 | 3.85907 | 36.00822 | 32008 ft | 482 kts | 208° |
| 2026-05-01 14:16 | 3.79998 | 35.97712 | 32008 ft | 482 kts | 208° |
| 2026-05-01 14:16 | 3.74052 | 35.94581 | 32008 ft | 482 kts | 208° |
| 2026-05-01 14:17 | 3.68103 | 35.91449 | 32008 ft | 482 kts | 208° |
| 2026-05-01 14:17 | 3.62151 | 35.88316 | 32052 ft | 486 kts | 208° |
| 2026-05-01 14:18 | 3.59159 | 35.86741 | 32309 ft | 487 kts | 208° |
| 2026-05-01 14:18 | 3.56170 | 35.85168 | 32672 ft | 485 kts | 208° |
| 2026-05-01 14:18 | 3.53214 | 35.83612 | 33057 ft | 483 kts | 208° |
| 2026-05-01 14:18 | 3.51207 | 35.82556 | 33306 ft | 481 kts | 208° |
| 2026-05-01 14:19 | 3.47288 | 35.80494 | 33744 ft | 480 kts | 208° |
| 2026-05-01 14:19 | 3.44333 | 35.78939 | 33933 ft | 481 kts | 208° |
| 2026-05-01 14:19 | 3.38376 | 35.75805 | 34001 ft | 481 kts | 208° |
| 2026-05-01 14:20 | 3.30517 | 35.71671 | 34005 ft | 478 kts | 208° |
| 2026-05-01 14:21 | 3.24630 | 35.68575 | 34006 ft | 477 kts | 208° |
| 2026-05-01 14:21 | 3.18749 | 35.65481 | 34009 ft | 477 kts | 208° |
| 2026-05-01 14:22 | 3.10191 | 35.60480 | 34010 ft | 478 kts | 217° |
| 2026-05-01 14:22 | 3.05223 | 35.56040 | 34013 ft | 479 kts | 224° |
| 2026-05-01 14:23 | 3.00466 | 35.51364 | 34014 ft | 480 kts | 224° |
| 2026-05-01 14:23 | 2.95676 | 35.46682 | 34009 ft | 481 kts | 224° |
| 2026-05-01 14:24 | 2.90897 | 35.42051 | 34009 ft | 481 kts | 224° |
| 2026-05-01 14:24 | 2.86078 | 35.37394 | 34008 ft | 481 kts | 224° |
| 2026-05-01 14:25 | 2.81261 | 35.32739 | 34007 ft | 481 kts | 224° |
| 2026-05-01 14:25 | 2.76448 | 35.28088 | 34008 ft | 480 kts | 224° |
| 2026-05-01 14:26 | 2.69243 | 35.21123 | 34004 ft | 479 kts | 224° |
| 2026-05-01 14:27 | 2.64476 | 35.16516 | 34008 ft | 479 kts | 224° |
| 2026-05-01 14:27 | 2.59679 | 35.11879 | 34005 ft | 479 kts | 224° |
| 2026-05-01 14:28 | 2.52482 | 35.04924 | 34005 ft | 479 kts | 224° |
| 2026-05-01 14:28 | 2.47684 | 35.00288 | 34010 ft | 479 kts | 224° |
| 2026-05-01 14:29 | 2.43036 | 34.95556 | 34008 ft | 479 kts | 229° |
| 2026-05-01 14:30 | 2.34390 | 34.85387 | 34008 ft | 480 kts | 230° |
| 2026-05-01 14:31 | 2.27880 | 34.77771 | 34005 ft | 480 kts | 229° |
| 2026-05-01 14:31 | 2.23535 | 34.72708 | 34008 ft | 480 kts | 229° |
| 2026-05-01 14:32 | 2.19199 | 34.67655 | 34008 ft | 480 kts | 229° |
| 2026-05-01 14:32 | 2.14848 | 34.62584 | 34007 ft | 480 kts | 229° |
| 2026-05-01 14:33 | 2.10497 | 34.57511 | 34008 ft | 480 kts | 229° |
| 2026-05-01 14:33 | 2.06171 | 34.52470 | 34008 ft | 480 kts | 229° |
| 2026-05-01 14:34 | 2.01821 | 34.47400 | 34005 ft | 480 kts | 229° |
| 2026-05-01 14:34 | 1.97471 | 34.42331 | 34008 ft | 480 kts | 229° |
| 2026-05-01 14:35 | 1.93125 | 34.37267 | 34008 ft | 480 kts | 229° |
| 2026-05-01 14:35 | 1.88797 | 34.32223 | 34008 ft | 480 kts | 229° |
| 2026-05-01 14:36 | 1.84449 | 34.27157 | 34009 ft | 480 kts | 229° |
| 2026-05-01 14:36 | 1.79971 | 34.22223 | 34010 ft | 479 kts | 226° |
| 2026-05-01 14:37 | 1.75286 | 34.17462 | 34012 ft | 479 kts | 225° |
| 2026-05-01 14:37 | 1.70587 | 34.12710 | 34008 ft | 480 kts | 225° |
| 2026-05-01 14:38 | 1.65940 | 34.07980 | 34008 ft | 480 kts | 225° |
| 2026-05-01 14:38 | 1.61240 | 34.03177 | 34008 ft | 480 kts | 225° |
| 2026-05-01 14:39 | 1.56595 | 33.98428 | 34005 ft | 480 kts | 225° |
| 2026-05-01 14:39 | 1.51931 | 33.93659 | 34008 ft | 480 kts | 225° |
| 2026-05-01 14:40 | 1.47260 | 33.88885 | 34008 ft | 480 kts | 225° |
| 2026-05-01 14:40 | 1.42586 | 33.84110 | 34005 ft | 480 kts | 225° |
| 2026-05-01 14:41 | 1.37920 | 33.79342 | 34007 ft | 480 kts | 225° |
| 2026-05-01 14:41 | 1.33267 | 33.74589 | 34007 ft | 480 kts | 225° |
| 2026-05-01 14:42 | 1.28573 | 33.69792 | 34008 ft | 480 kts | 225° |
| 2026-05-01 14:42 | 1.23932 | 33.65051 | 34007 ft | 480 kts | 225° |
| 2026-05-01 14:43 | 1.19258 | 33.60277 | 34006 ft | 480 kts | 225° |
| 2026-05-01 14:43 | 1.14591 | 33.55509 | 34009 ft | 480 kts | 225° |
| 2026-05-01 14:44 | 1.09924 | 33.50742 | 34010 ft | 480 kts | 225° |
| 2026-05-01 14:44 | 1.02946 | 33.43614 | 34007 ft | 480 kts | 225° |
| 2026-05-01 14:45 | 0.95938 | 33.36456 | 34004 ft | 480 kts | 225° |
| 2026-05-01 14:46 | 0.91268 | 33.31687 | 34005 ft | 480 kts | 225° |
| 2026-05-01 14:46 | 0.84265 | 33.24533 | 34004 ft | 480 kts | 225° |
| 2026-05-01 14:47 | 0.79619 | 33.19788 | 34009 ft | 480 kts | 225° |
| 2026-05-01 14:48 | 0.72609 | 33.12622 | 34008 ft | 480 kts | 225° |
| 2026-05-01 14:48 | 0.65606 | 33.05463 | 34005 ft | 480 kts | 225° |
| 2026-05-01 14:49 | 0.56293 | 32.95940 | 34009 ft | 480 kts | 225° |
| 2026-05-01 14:50 | 0.46955 | 32.86392 | 34006 ft | 480 kts | 225° |
| 2026-05-01 14:51 | 0.39953 | 32.79234 | 34008 ft | 480 kts | 225° |
| 2026-05-01 14:52 | 0.32984 | 32.72108 | 34006 ft | 480 kts | 225° |
| 2026-05-01 14:53 | 0.25984 | 32.64952 | 34007 ft | 480 kts | 225° |
| 2026-05-01 14:53 | 0.21313 | 32.60176 | 34009 ft | 480 kts | 225° |
| 2026-05-01 14:54 | 0.16648 | 32.55405 | 34005 ft | 480 kts | 225° |
| 2026-05-01 14:54 | 0.11980 | 32.50632 | 34008 ft | 480 kts | 225° |
| 2026-05-01 14:55 | 0.07330 | 32.45838 | 34005 ft | 480 kts | 229° |
| 2026-05-01 14:55 | 0.03373 | 32.40485 | 34004 ft | 480 kts | 240° |
| 2026-05-01 14:56 | 0.00183 | 32.34673 | 34013 ft | 479 kts | 242° |
| 2026-05-01 14:56 | -0.02996 | 32.28800 | 34008 ft | 480 kts | 241° |
| 2026-05-01 14:57 | -0.06194 | 32.22950 | 34010 ft | 480 kts | 241° |
| 2026-05-01 14:57 | -0.11011 | 32.14202 | 34010 ft | 480 kts | 241° |
| 2026-05-01 14:58 | -0.14238 | 32.08349 | 34008 ft | 480 kts | 241° |
| 2026-05-01 14:58 | -0.17466 | 32.02493 | 34008 ft | 480 kts | 241° |
| 2026-05-01 14:59 | -0.20666 | 31.96686 | 34009 ft | 480 kts | 241° |
| 2026-05-01 14:59 | -0.23895 | 31.90826 | 34008 ft | 480 kts | 241° |
| 2026-05-01 15:00 | -0.28731 | 31.82048 | 34008 ft | 480 kts | 241° |
| 2026-05-01 15:01 | -0.31930 | 31.76241 | 34009 ft | 480 kts | 241° |
| 2026-05-01 15:01 | -0.35159 | 31.70382 | 34007 ft | 480 kts | 241° |
| 2026-05-01 15:02 | -0.38382 | 31.64532 | 34006 ft | 480 kts | 241° |
| 2026-05-01 15:02 | -0.41603 | 31.58686 | 34006 ft | 480 kts | 241° |
| 2026-05-01 15:03 | -0.44807 | 31.52870 | 34007 ft | 480 kts | 241° |
| 2026-05-01 15:03 | -0.48030 | 31.47019 | 34008 ft | 480 kts | 241° |
| 2026-05-01 15:04 | -0.51246 | 31.41182 | 34005 ft | 480 kts | 241° |
| 2026-05-01 15:04 | -0.54468 | 31.35333 | 34007 ft | 480 kts | 241° |
| 2026-05-01 15:05 | -0.57669 | 31.29522 | 34010 ft | 480 kts | 241° |
| 2026-05-01 15:05 | -0.60893 | 31.23670 | 34008 ft | 480 kts | 241° |
| 2026-05-01 15:06 | -0.64116 | 31.17819 | 34008 ft | 480 kts | 241° |
| 2026-05-01 15:06 | -0.66794 | 31.12956 | 34009 ft | 480 kts | 241° |
| 2026-05-01 15:07 | -0.70540 | 31.06155 | 34007 ft | 480 kts | 241° |
| 2026-05-01 15:07 | -0.73238 | 31.01258 | 34007 ft | 480 kts | 241° |
| 2026-05-01 15:08 | -0.76443 | 30.95437 | 34007 ft | 480 kts | 241° |
| 2026-05-01 15:08 | -0.79661 | 30.89594 | 34004 ft | 480 kts | 241° |
| 2026-05-01 15:09 | -0.82882 | 30.83745 | 34007 ft | 480 kts | 241° |
| 2026-05-01 15:09 | -0.86103 | 30.77897 | 34011 ft | 480 kts | 241° |
| 2026-05-01 15:10 | -0.89320 | 30.72054 | 34007 ft | 480 kts | 241° |
| 2026-05-01 15:10 | -0.94143 | 30.63294 | 34009 ft | 480 kts | 241° |
| 2026-05-01 15:11 | -0.98978 | 30.54512 | 34011 ft | 480 kts | 241° |
| 2026-05-01 15:12 | -1.02175 | 30.48703 | 34004 ft | 480 kts | 241° |
| 2026-05-01 15:12 | -1.06992 | 30.39912 | 34003 ft | 480 kts | 243° |
| 2026-05-01 15:14 | -1.12342 | 30.24189 | 34009 ft | 480 kts | 253° |
| 2026-05-01 15:14 | -1.15313 | 30.14599 | 34007 ft | 480 kts | 252° |
| 2026-05-01 15:15 | -1.19298 | 30.01873 | 34008 ft | 481 kts | 252° |
| 2026-05-01 15:16 | -1.23290 | 29.89108 | 34010 ft | 480 kts | 252° |
| 2026-05-01 15:18 | -1.28264 | 29.73198 | 34008 ft | 480 kts | 252° |
| 2026-05-01 15:19 | -1.32248 | 29.60457 | 34009 ft | 480 kts | 252° |
| 2026-05-01 15:19 | -1.36199 | 29.51281 | 34011 ft | 480 kts | 244° |
| 2026-05-01 15:20 | -1.40436 | 29.42245 | 34009 ft | 480 kts | 245° |
| 2026-05-01 15:21 | -1.43235 | 29.36177 | 34006 ft | 480 kts | 245° |
| 2026-05-01 15:21 | -1.46029 | 29.30111 | 34007 ft | 480 kts | 245° |
| 2026-05-01 15:22 | -1.49853 | 29.20857 | 34007 ft | 480 kts | 254° |
| 2026-05-01 15:22 | -1.51648 | 29.14466 | 34005 ft | 480 kts | 254° |
| 2026-05-01 15:23 | -1.53516 | 29.08052 | 34008 ft | 480 kts | 253° |
| 2026-05-01 15:23 | -1.55382 | 29.01628 | 34013 ft | 480 kts | 252° |
| 2026-05-01 15:24 | -1.57826 | 28.95425 | 34014 ft | 480 kts | 246° |
| 2026-05-01 15:24 | -1.60555 | 28.89334 | 34006 ft | 480 kts | 245° |
| 2026-05-01 15:25 | -1.63265 | 28.83265 | 34009 ft | 480 kts | 246° |
| 2026-05-01 15:25 | -1.65959 | 28.77163 | 34012 ft | 480 kts | 246° |
| 2026-05-01 15:26 | -1.68648 | 28.71039 | 34005 ft | 480 kts | 246° |
| 2026-05-01 15:26 | -1.71332 | 28.64920 | 34011 ft | 480 kts | 246° |
| 2026-05-01 15:27 | -1.74001 | 28.58839 | 34004 ft | 480 kts | 246° |
| 2026-05-01 15:28 | -1.78026 | 28.49672 | 34007 ft | 480 kts | 246° |
| 2026-05-01 15:28 | -1.80713 | 28.43550 | 34007 ft | 480 kts | 246° |
| 2026-05-01 15:29 | -1.84736 | 28.34383 | 34009 ft | 480 kts | 246° |
| 2026-05-01 15:30 | -1.90086 | 28.22190 | 34010 ft | 480 kts | 246° |
| 2026-05-01 15:31 | -1.98140 | 28.03831 | 34008 ft | 480 kts | 246° |
| 2026-05-01 15:32 | -2.03492 | 27.91625 | 34008 ft | 480 kts | 246° |
| 2026-05-01 15:34 | -2.11541 | 27.73266 | 34008 ft | 480 kts | 246° |